createdAt,value
2022-10-19T00:08:24.858Z,13.29
2022-10-19T00:19:02.239Z,13.40
2022-10-19T00:29:40.033Z,13.45
2022-10-19T00:40:42.512Z,13.41
2022-10-19T00:51:43.845Z,13.53
2022-10-19T01:02:21.878Z,13.48
2022-10-19T01:13:23.747Z,13.28
2022-10-19T01:24:25.308Z,13.14
2022-10-19T01:35:27.390Z,12.86
2022-10-19T01:46:27.467Z,12.70
2022-10-19T01:57:27.261Z,12.63
2022-10-19T02:08:28.024Z,12.46
2022-10-19T02:19:27.026Z,12.37
2022-10-19T02:30:05.408Z,12.18
2022-10-19T02:41:03.935Z,12.09
2022-10-19T02:52:05.737Z,12.02
2022-10-19T03:03:08.139Z,11.93
2022-10-19T03:14:09.452Z,11.78
2022-10-19T03:25:11.869Z,11.78
2022-10-19T03:35:51.285Z,11.75
2022-10-19T03:46:55.271Z,11.84
2022-10-19T03:57:35.295Z,12.24
2022-10-19T04:08:36.022Z,12.49
2022-10-19T04:19:39.988Z,12.66
2022-10-19T04:30:33.830Z,12.69
2022-10-19T04:41:36.723Z,12.73
2022-10-19T04:52:41.226Z,12.91
2022-10-19T05:03:42.473Z,12.96
2022-10-19T05:14:46.328Z,13.14
2022-10-19T05:25:47.384Z,13.14
2022-10-19T05:36:49.047Z,13.07
2022-10-19T05:47:51.893Z,13.17
2022-10-19T05:58:55.125Z,13.50
2022-10-19T06:09:59.222Z,13.80
2022-10-19T06:21:02.156Z,14.17
2022-10-19T06:32:01.384Z,14.50
2022-10-19T06:42:57.583Z,14.54
2022-10-19T06:53:56.577Z,14.69
2022-10-19T07:04:55.441Z,14.65
2022-10-19T07:15:54.406Z,14.94
2022-10-19T07:26:57.607Z,15.97
2022-10-19T07:37:59.240Z,16.65
2022-10-19T07:48:52.956Z,16.93
2022-10-19T07:59:36.148Z,16.84
2022-10-19T08:10:12.383Z,17.32
2022-10-19T08:21:10.006Z,17.60
2022-10-19T08:31:44.653Z,17.92
2022-10-19T08:42:43.823Z,17.96
2022-10-19T08:53:42.879Z,18.44
2022-10-19T09:04:30.114Z,18.13
2022-10-19T09:15:27.158Z,18.65
2022-10-19T09:26:25.223Z,18.11
2022-10-19T09:37:26.043Z,18.58
2022-10-19T09:48:24.962Z,18.90
2022-10-19T09:59:24.044Z,19.53
2022-10-19T10:10:17.093Z,19.05
2022-10-19T10:21:15.628Z,19.08
2022-10-19T10:32:05.364Z,21.04
2022-10-19T10:43:04.560Z,20.66
2022-10-19T10:53:50.907Z,24.34
2022-10-19T11:04:42.082Z,24.53
2022-10-19T11:15:42.332Z,25.67
2022-10-19T11:26:43.792Z,25.96
2022-10-19T11:37:49.729Z,26.52
2022-10-19T11:48:44.820Z,26.42
2022-10-19T11:59:44.475Z,25.17
2022-10-19T12:10:45.605Z,27.57
2022-10-19T12:21:44.196Z,26.45
2022-10-19T12:32:17.228Z,25.77
2022-10-19T12:43:15.005Z,26.58
2022-10-19T12:53:56.390Z,26.38
2022-10-19T13:04:50.775Z,24.83
2022-10-19T13:15:48.279Z,24.83
2022-10-19T13:26:48.990Z,26.18
2022-10-19T13:37:49.046Z,26.34
2022-10-19T13:48:48.601Z,25.23
2022-10-19T13:59:46.101Z,22.89
2022-10-19T14:11:00.120Z,22.28
2022-10-19T14:21:44.587Z,21.78
2022-10-19T14:32:42.956Z,21.23
2022-10-19T14:43:31.889Z,20.96
2022-10-19T14:54:27.535Z,20.46
2022-10-19T15:05:26.689Z,20.26
2022-10-19T15:16:25.741Z,19.88
2022-10-19T15:27:25.833Z,19.58
2022-10-19T15:38:25.910Z,19.23
2022-10-19T15:49:24.781Z,18.61
2022-10-19T15:59:57.732Z,18.28
2022-10-19T16:10:55.283Z,18.03
2022-10-19T16:21:55.292Z,17.89
2022-10-19T16:32:43.644Z,17.73
2022-10-19T16:43:18.484Z,17.64
2022-10-19T16:54:15.394Z,17.40
2022-10-19T17:05:10.013Z,17.20
2022-10-19T17:16:00.051Z,17.15
2022-10-19T17:26:49.606Z,17.03
2022-10-19T17:37:40.360Z,16.93
2022-10-19T17:48:34.936Z,17.00
2022-10-19T18:10:16.045Z,16.96
2022-10-19T18:21:14.402Z,16.80
2022-10-19T18:32:03.453Z,16.55
2022-10-19T18:43:02.423Z,16.26
2022-10-19T18:53:57.956Z,15.83
2022-10-19T19:04:53.268Z,15.71
2022-10-19T19:15:50.539Z,15.67
2022-10-19T19:26:51.915Z,15.38
2022-10-19T19:37:45.006Z,15.42
2022-10-19T19:48:39.103Z,15.51
2022-10-19T19:59:29.976Z,15.57
2022-10-19T20:10:25.406Z,15.52
2022-10-19T20:21:24.560Z,15.39
2022-10-19T20:32:19.861Z,15.33
2022-10-19T20:43:19.267Z,15.53
2022-10-19T20:54:16.454Z,15.21
2022-10-19T21:04:52.617Z,15.09
2022-10-19T21:15:44.627Z,14.98
2022-10-19T21:26:20.641Z,14.71
2022-10-19T21:37:12.298Z,14.46
2022-10-19T21:48:11.555Z,14.17
2022-10-19T21:59:05.601Z,14.23
2022-10-19T22:10:00.835Z,14.01
2022-10-19T22:21:00.155Z,13.77
2022-10-19T22:31:37.236Z,13.68
2022-10-19T22:42:39.416Z,13.47
2022-10-19T22:53:37.046Z,13.25
2022-10-19T23:04:32.322Z,13.21
2022-10-19T23:15:34.510Z,13.06
2022-10-19T23:26:11.286Z,13.09
2022-10-19T23:36:48.106Z,13.18
2022-10-19T23:47:49.080Z,13.22
2022-10-19T23:58:50.632Z,12.99
